createdAt,value
2018-09-06T00:00:51.985Z,89.44
2018-09-06T00:03:21.716Z,89.01
2018-09-06T00:05:51.405Z,88.87
2018-09-06T00:08:21.556Z,89.24
2018-09-06T00:10:51.243Z,90.18
2018-09-06T00:13:20.952Z,91.67
2018-09-06T00:15:50.616Z,91.38
2018-09-06T00:18:20.319Z,91.74
2018-09-06T00:20:49.967Z,92.66
2018-09-06T00:23:26.319Z,93.64
2018-09-06T00:25:56.002Z,93.07
2018-09-06T00:28:25.745Z,92.91
2018-09-06T00:30:55.436Z,94.28
2018-09-06T00:33:25.084Z,94.24
2018-09-06T00:35:54.885Z,94.84
2018-09-06T00:38:24.568Z,94.87
2018-09-06T00:40:54.335Z,94.43
2018-09-06T00:43:24.043Z,95.28
2018-09-06T00:45:53.904Z,97.05
2018-09-06T00:48:23.631Z,97.20
2018-09-06T00:50:53.484Z,97.17
2018-09-06T00:53:23.335Z,96.62
2018-09-06T00:55:53.110Z,96.03
2018-09-06T00:58:22.847Z,96.95
2018-09-06T01:00:52.610Z,95.85
2018-09-06T01:03:22.348Z,96.35
2018-09-06T01:05:52.184Z,96.57
2018-09-06T01:08:21.919Z,97.06
2018-09-06T01:10:51.656Z,97.37
2018-09-06T01:13:21.292Z,98.27
2018-09-06T01:15:50.984Z,99.83
2018-09-06T01:18:20.675Z,100.00
2018-09-06T01:20:50.430Z,99.60
2018-09-06T01:23:20.043Z,99.40
2018-09-06T01:25:50.113Z,99.28
2018-09-06T01:28:21.061Z,99.71
2018-09-06T01:30:51.078Z,100.00
2018-09-06T01:33:24.844Z,100.00
2018-09-06T01:35:59.758Z,100.00
2018-09-06T01:38:29.434Z,100.00
2018-09-06T01:40:59.052Z,100.00
2018-09-06T01:43:28.751Z,100.00
2018-09-06T01:45:58.396Z,100.00
2018-09-06T01:48:28.037Z,100.00
2018-09-06T01:50:58.000Z,100.00
2018-09-06T01:53:27.931Z,100.00
2018-09-06T01:55:58.068Z,100.00
2018-09-06T01:58:27.789Z,100.00
2018-09-06T02:00:57.773Z,100.00
2018-09-06T02:03:27.415Z,100.00
2018-09-06T02:05:57.052Z,100.00
2018-09-06T02:08:26.775Z,100.00
2018-09-06T02:10:56.501Z,100.00
2018-09-06T02:13:26.185Z,100.00
2018-09-06T02:15:55.989Z,100.00
2018-09-06T02:18:25.673Z,100.00
2018-09-06T02:20:55.294Z,100.00
2018-09-06T02:23:25.028Z,100.00
2018-09-06T02:25:54.747Z,100.00
2018-09-06T02:28:24.486Z,100.00
2018-09-06T02:30:54.232Z,100.00
2018-09-06T02:33:23.907Z,100.00
2018-09-06T02:35:53.553Z,100.00
2018-09-06T02:38:23.174Z,100.00
2018-09-06T02:40:52.900Z,100.00
2018-09-06T02:43:22.566Z,100.00
2018-09-06T02:45:52.286Z,100.00
2018-09-06T02:48:26.020Z,100.00
2018-09-06T02:51:00.812Z,100.00
2018-09-06T02:53:32.190Z,100.00
2018-09-06T02:56:01.947Z,100.00
2018-09-06T02:58:31.662Z,100.00
2018-09-06T03:01:01.314Z,100.00
2018-09-06T03:03:31.031Z,100.00
2018-09-06T03:06:00.800Z,100.00
2018-09-06T03:08:30.957Z,100.00
2018-09-06T03:11:20.241Z,100.00
2018-09-06T03:13:50.065Z,100.00
2018-09-06T03:16:19.953Z,100.00
2018-09-06T03:18:49.725Z,100.00
2018-09-06T03:21:19.786Z,100.00
2018-09-06T03:23:49.771Z,100.00
2018-09-06T03:26:20.431Z,100.00
2018-09-06T03:28:51.071Z,100.00
2018-09-06T03:31:20.773Z,100.00
2018-09-06T03:33:50.554Z,100.00
2018-09-06T03:36:20.245Z,100.00
2018-09-06T03:38:49.923Z,100.00
2018-09-06T03:41:19.609Z,100.00
2018-09-06T03:43:49.309Z,100.00
2018-09-06T03:46:19.627Z,100.00
2018-09-06T03:48:49.306Z,100.00
2018-09-06T03:51:18.946Z,100.00
2018-09-06T03:53:48.589Z,100.00
2018-09-06T03:56:18.271Z,100.00
2018-09-06T03:58:47.997Z,100.00
2018-09-06T04:01:17.748Z,100.00
2018-09-06T04:03:47.451Z,100.00
2018-09-06T04:06:17.150Z,100.00
2018-09-06T04:08:46.825Z,100.00
2018-09-06T04:11:16.463Z,100.00
2018-09-06T04:13:46.119Z,100.00
2018-09-06T04:16:15.782Z,100.00
2018-09-06T04:18:49.688Z,100.00
2018-09-06T04:21:19.376Z,100.00
2018-09-06T04:23:49.137Z,100.00
2018-09-06T04:26:18.788Z,100.00
2018-09-06T04:28:48.415Z,100.00
2018-09-06T04:31:18.121Z,100.00
2018-09-06T04:33:47.733Z,100.00
2018-09-06T04:36:17.486Z,100.00
2018-09-06T04:38:47.062Z,100.00
2018-09-06T04:41:16.741Z,100.00
2018-09-06T04:43:46.526Z,100.00
2018-09-06T04:46:16.106Z,100.00
2018-09-06T04:48:45.770Z,100.00
2018-09-06T04:51:15.477Z,100.00
2018-09-06T04:53:45.100Z,100.00
2018-09-06T04:56:14.739Z,100.00
2018-09-06T04:58:44.421Z,100.00
2018-09-06T05:01:14.115Z,100.00
2018-09-06T05:03:43.780Z,100.00
2018-09-06T05:06:13.650Z,100.00
2018-09-06T05:08:43.293Z,100.00
2018-09-06T05:11:12.976Z,100.00
2018-09-06T05:13:42.653Z,100.00
2018-09-06T05:16:12.420Z,100.00
2018-09-06T05:18:42.131Z,100.00
2018-09-06T05:21:11.893Z,100.00
2018-09-06T05:23:41.724Z,100.00
2018-09-06T05:26:11.515Z,100.00
2018-09-06T05:28:41.336Z,100.00
2018-09-06T05:31:11.112Z,100.00
2018-09-06T05:33:40.870Z,99.71
2018-09-06T05:36:10.987Z,99.15
2018-09-06T05:38:40.759Z,99.13
2018-09-06T05:41:10.569Z,96.96
2018-09-06T05:43:41.084Z,97.92
2018-09-06T05:46:11.426Z,95.56
2018-09-06T05:48:45.532Z,91.96
2018-09-06T05:51:15.207Z,91.55
2018-09-06T05:53:44.869Z,82.99
2018-09-06T05:56:14.520Z,81.74
2018-09-06T05:58:44.260Z,64.34
2018-09-06T06:01:14.735Z,57.03
2018-09-06T06:03:44.392Z,53.67
2018-09-06T06:06:14.169Z,48.75
2018-09-06T06:08:46.446Z,48.36
2018-09-06T06:11:16.221Z,50.24
2018-09-06T06:13:48.533Z,49.90
2018-09-06T06:16:18.215Z,58.36
2018-09-06T06:18:47.957Z,45.02
2018-09-06T06:21:17.690Z,45.46
2018-09-06T06:23:47.375Z,40.39
2018-09-06T06:26:17.076Z,40.90
2018-09-06T06:28:46.766Z,41.01
2018-09-06T06:31:16.441Z,39.54
2018-09-06T06:33:46.233Z,38.07
2018-09-06T06:36:15.954Z,36.85
2018-09-06T06:38:45.603Z,36.20
2018-09-06T06:41:15.273Z,36.02
2018-09-06T06:43:45.054Z,41.64
2018-09-06T06:46:14.743Z,41.82
2018-09-06T06:48:44.630Z,49.20
2018-09-06T06:51:14.281Z,40.78
2018-09-06T06:53:43.949Z,41.89
2018-09-06T06:56:17.742Z,52.10
2018-09-06T06:58:47.460Z,57.02
2018-09-06T07:01:17.063Z,59.49
2018-09-06T07:03:46.748Z,60.89
2018-09-06T07:06:17.325Z,62.33
2018-09-06T07:08:46.970Z,63.75
2018-09-06T07:11:17.300Z,64.44
2018-09-06T07:13:46.956Z,64.85
2018-09-06T07:16:16.681Z,64.92
2018-09-06T07:18:46.357Z,61.81
2018-09-06T07:21:16.103Z,64.61
2018-09-06T07:23:45.800Z,65.00
2018-09-06T07:26:15.447Z,65.81
2018-09-06T07:28:46.670Z,66.75
2018-09-06T07:31:16.359Z,69.77
2018-09-06T07:33:46.106Z,69.90
2018-09-06T07:36:15.807Z,66.74
2018-09-06T07:38:45.494Z,65.63
2018-09-06T07:41:15.432Z,65.26
2018-09-06T07:43:45.383Z,65.71
2018-09-06T07:46:15.125Z,69.51
2018-09-06T07:48:45.216Z,65.66
2018-09-06T07:53:48.772Z,72.03
2018-09-06T07:56:18.654Z,68.13
2018-09-06T07:58:48.477Z,69.01
2018-09-06T08:01:18.331Z,67.48
2018-09-06T08:03:48.232Z,66.71
2018-09-06T08:06:18.297Z,65.88
2018-09-06T08:08:48.029Z,65.36
2018-09-06T08:11:18.089Z,65.82
2018-09-06T08:13:47.900Z,63.20
2018-09-06T08:16:17.748Z,60.29
2018-09-06T08:18:47.648Z,61.31
2018-09-06T08:21:17.618Z,61.10
2018-09-06T08:23:47.546Z,63.65
2018-09-06T08:26:17.414Z,60.10
2018-09-06T08:28:47.983Z,63.39
2018-09-06T08:31:18.470Z,62.42
2018-09-06T08:33:48.344Z,60.59
2018-09-06T08:36:18.708Z,61.87
2018-09-06T08:38:55.381Z,59.65
2018-09-06T08:41:25.434Z,61.42
2018-09-06T08:43:55.827Z,63.23
2018-09-06T08:46:25.716Z,62.57
2018-09-06T08:51:44.929Z,59.58
2018-09-06T08:54:19.869Z,58.74
2018-09-06T08:56:55.084Z,61.10
2018-09-06T08:59:25.281Z,61.02
2018-09-06T09:01:56.297Z,59.75
2018-09-06T09:04:26.734Z,59.27
2018-09-06T09:06:56.615Z,58.98
2018-09-06T09:09:26.407Z,57.87
2018-09-06T09:11:56.227Z,59.05
2018-09-06T09:14:32.341Z,58.38
2018-09-06T09:17:07.325Z,57.71
2018-09-06T09:19:37.517Z,57.17
2018-09-06T09:22:07.917Z,61.57
2018-09-06T09:24:37.826Z,62.05
2018-09-06T09:27:07.780Z,61.96
2018-09-06T09:29:37.598Z,61.75
2018-09-06T09:32:07.389Z,59.85
2018-09-06T09:34:37.175Z,62.67
2018-09-06T09:37:07.115Z,63.49
2018-09-06T09:39:36.816Z,62.09
2018-09-06T09:42:06.508Z,62.24
2018-09-06T09:44:36.243Z,60.66
2018-09-06T09:49:34.831Z,58.81
2018-09-06T09:52:04.772Z,59.25
2018-09-06T09:54:35.007Z,57.63
2018-09-06T09:57:05.260Z,55.90
2018-09-06T09:59:37.456Z,57.57
2018-09-06T10:02:12.348Z,60.43
2018-09-06T10:05:49.775Z,60.55
2018-09-06T10:08:24.630Z,60.22
2018-09-06T10:10:54.372Z,59.67
2018-09-06T10:13:24.323Z,59.22
2018-09-06T10:15:53.990Z,57.12
2018-09-06T10:18:23.701Z,57.69
2018-09-06T10:20:53.417Z,56.53
2018-09-06T10:23:23.155Z,56.05
2018-09-06T10:25:52.828Z,58.31
2018-09-06T10:28:22.567Z,59.63
2018-09-06T10:30:52.277Z,58.38
2018-09-06T10:33:21.977Z,58.95
2018-09-06T10:35:51.655Z,57.90
2018-09-06T10:38:21.397Z,58.56
2018-09-06T10:40:51.245Z,61.78
2018-09-06T10:43:20.925Z,58.10
2018-09-06T10:45:50.744Z,57.72
2018-09-06T10:48:20.497Z,58.70
2018-09-06T10:50:50.309Z,60.98
2018-09-06T10:53:21.151Z,61.92
2018-09-06T10:55:50.930Z,62.23
2018-09-06T10:58:20.653Z,63.92
2018-09-06T11:00:50.424Z,62.82
2018-09-06T11:03:20.217Z,63.76
2018-09-06T11:05:49.905Z,64.00
2018-09-06T11:08:19.595Z,64.58
2018-09-06T11:10:49.263Z,68.50
2018-09-06T11:13:19.017Z,78.58
2018-09-06T11:15:48.718Z,80.29
2018-09-06T11:18:18.388Z,81.35
2018-09-06T11:20:52.620Z,84.30
2018-09-06T11:23:22.434Z,89.23
2018-09-06T11:25:52.324Z,89.56
2018-09-06T11:28:22.114Z,87.24
2018-09-06T11:30:51.886Z,92.21
2018-09-06T11:33:21.612Z,95.97
2018-09-06T11:35:51.309Z,97.01
2018-09-06T11:38:21.101Z,99.36
2018-09-06T11:40:50.914Z,96.81
2018-09-06T11:43:20.611Z,99.22
2018-09-06T11:45:50.347Z,97.28
2018-09-06T11:48:20.164Z,98.43
2018-09-06T11:50:49.875Z,97.42
2018-09-06T11:53:19.964Z,94.53
2018-09-06T11:55:49.781Z,93.01
2018-09-06T11:58:19.440Z,88.33
2018-09-06T12:00:49.161Z,85.59
2018-09-06T12:03:18.887Z,82.50
2018-09-06T12:05:48.697Z,82.11
2018-09-06T12:08:18.507Z,76.29
2018-09-06T12:10:48.320Z,78.00
2018-09-06T12:13:17.958Z,79.11
2018-09-06T12:15:47.747Z,81.37
2018-09-06T12:18:17.580Z,78.76
2018-09-06T12:20:47.404Z,82.53
2018-09-06T12:23:17.946Z,81.91
2018-09-06T12:25:47.811Z,84.19
2018-09-06T12:28:22.184Z,83.04
2018-09-06T12:30:51.949Z,74.20
2018-09-06T12:33:26.083Z,75.37
2018-09-06T12:35:56.019Z,72.77
2018-09-06T12:38:25.729Z,73.74
2018-09-06T12:40:56.093Z,74.87
2018-09-06T12:43:25.926Z,74.68
2018-09-06T12:45:55.668Z,77.87
2018-09-06T12:48:25.388Z,76.90
2018-09-06T12:50:55.110Z,75.58
2018-09-06T12:53:24.932Z,75.27
2018-09-06T12:55:54.671Z,72.96
2018-09-06T12:58:24.468Z,71.56
2018-09-06T13:00:54.617Z,72.10
2018-09-06T13:03:24.891Z,77.10
2018-09-06T13:05:54.571Z,80.90
2018-09-06T13:08:24.264Z,80.21
2018-09-06T13:10:54.090Z,80.48
2018-09-06T13:13:23.895Z,84.49
2018-09-06T13:15:53.528Z,83.98
2018-09-06T13:18:24.026Z,84.89
2018-09-06T13:20:53.834Z,82.74
2018-09-06T13:23:23.514Z,85.42
2018-09-06T13:25:53.301Z,88.98
2018-09-06T13:28:23.095Z,89.32
2018-09-06T13:30:52.922Z,91.12
2018-09-06T13:33:22.631Z,92.60
2018-09-06T13:35:52.367Z,92.42
2018-09-06T13:38:22.100Z,91.88
2018-09-06T13:40:51.901Z,95.95
2018-09-06T13:43:21.715Z,97.32
2018-09-06T13:45:52.772Z,97.54
2018-09-06T13:48:23.395Z,100.00
2018-09-06T13:50:53.164Z,97.92
2018-09-06T13:53:22.958Z,100.00
2018-09-06T13:55:52.725Z,100.00
2018-09-06T13:58:22.552Z,100.00
2018-09-06T14:00:52.186Z,100.00
2018-09-06T14:03:22.086Z,100.00
2018-09-06T14:05:51.781Z,100.00
2018-09-06T14:08:21.438Z,100.00
2018-09-06T14:10:52.052Z,100.00
2018-09-06T14:13:21.778Z,100.00
2018-09-06T14:15:51.494Z,100.00
2018-09-06T14:18:21.387Z,100.00
2018-09-06T14:20:51.236Z,100.00
2018-09-06T14:23:20.884Z,100.00
2018-09-06T14:25:50.513Z,100.00
2018-09-06T14:28:20.184Z,100.00
2018-09-06T14:30:49.803Z,100.00
2018-09-06T14:33:19.436Z,100.00
2018-09-06T14:35:49.150Z,100.00
2018-09-06T14:38:18.879Z,100.00
2018-09-06T14:40:48.636Z,99.06
2018-09-06T14:43:18.322Z,95.74
2018-09-06T14:45:47.926Z,93.31
2018-09-06T14:48:17.552Z,92.52
2018-09-06T14:50:47.160Z,94.24
2018-09-06T14:53:16.716Z,92.28
2018-09-06T14:55:46.359Z,87.38
2018-09-06T14:58:16.021Z,83.82
2018-09-06T15:00:45.675Z,81.01
2018-09-06T15:03:15.313Z,80.37
2018-09-06T15:05:44.932Z,81.19
2018-09-06T15:08:14.602Z,79.36
2018-09-06T15:10:44.199Z,79.15
2018-09-06T15:13:13.811Z,81.93
2018-09-06T15:15:43.494Z,83.94
2018-09-06T15:18:13.242Z,83.87
2018-09-06T15:20:42.902Z,83.27
2018-09-06T15:23:12.660Z,86.22
2018-09-06T15:25:42.294Z,83.41
2018-09-06T15:28:12.078Z,83.40
2018-09-06T15:30:41.739Z,86.45
2018-09-06T15:33:11.563Z,88.70
2018-09-06T15:35:41.506Z,88.40
2018-09-06T15:38:11.280Z,88.96
2018-09-06T15:40:41.016Z,89.96
2018-09-06T15:43:10.885Z,86.41
2018-09-06T15:45:40.591Z,88.73
2018-09-06T15:48:10.395Z,85.12
2018-09-06T15:50:40.124Z,87.91
2018-09-06T15:53:14.524Z,85.51
2018-09-06T15:55:47.770Z,87.69
2018-09-06T15:58:18.331Z,87.27
2018-09-06T16:00:48.180Z,85.49
2018-09-06T16:03:17.988Z,88.30
2018-09-06T16:05:47.887Z,89.74
2018-09-06T16:08:17.570Z,86.10
2018-09-06T16:10:47.220Z,86.45
2018-09-06T16:13:17.188Z,89.63
2018-09-06T16:15:46.988Z,86.91
2018-09-06T16:18:17.055Z,87.36
2018-09-06T16:20:46.896Z,86.96
2018-09-06T16:23:17.440Z,87.23
2018-09-06T16:25:47.422Z,90.06
2018-09-06T16:28:17.132Z,91.07
2018-09-06T16:30:46.900Z,88.14
2018-09-06T16:33:16.607Z,88.32
2018-09-06T16:35:46.355Z,88.79
2018-09-06T16:38:16.544Z,89.84
2018-09-06T16:40:46.296Z,88.71
2018-09-06T16:43:16.671Z,87.93
2018-09-06T16:45:46.396Z,90.20
2018-09-06T16:48:16.396Z,91.35
2018-09-06T16:50:46.156Z,92.65
2018-09-06T16:53:16.183Z,93.04
2018-09-06T16:55:45.981Z,93.15
2018-09-06T16:58:16.055Z,94.11
2018-09-06T17:00:50.969Z,94.65
2018-09-06T17:03:20.690Z,95.45
2018-09-06T17:05:50.452Z,92.76
2018-09-06T17:08:20.800Z,93.75
2018-09-06T17:10:51.264Z,95.98
2018-09-06T17:13:26.084Z,95.30
2018-09-06T17:16:01.297Z,96.90
2018-09-06T17:18:31.084Z,98.01
2018-09-06T17:21:00.917Z,100.00
2018-09-06T17:23:34.826Z,100.00
2018-09-06T17:26:04.609Z,99.30
2018-09-06T17:28:35.501Z,100.00
2018-09-06T17:31:06.082Z,100.00
2018-09-06T17:33:35.890Z,100.00
2018-09-06T17:36:05.683Z,100.00
2018-09-06T17:38:35.544Z,100.00
2018-09-06T17:41:05.323Z,100.00
2018-09-06T17:43:39.149Z,100.00
2018-09-06T17:46:08.892Z,100.00
2018-09-06T17:48:38.768Z,100.00
2018-09-06T17:51:08.669Z,100.00
2018-09-06T17:53:39.161Z,100.00
2018-09-06T17:56:09.096Z,100.00
2018-09-06T17:58:43.187Z,100.00
2018-09-06T18:01:52.772Z,100.00
2018-09-06T18:04:23.052Z,100.00
2018-09-06T18:06:52.909Z,100.00
2018-09-06T18:09:23.149Z,100.00
2018-09-06T18:11:52.964Z,100.00
2018-09-06T18:14:23.418Z,100.00
2018-09-06T18:16:53.377Z,100.00
2018-09-06T18:19:23.722Z,100.00
2018-09-06T18:21:58.272Z,100.00
2018-09-06T18:24:32.869Z,100.00
2018-09-06T18:27:02.692Z,100.00
2018-09-06T18:29:32.895Z,100.00
2018-09-06T18:32:02.746Z,100.00
2018-09-06T18:34:32.530Z,100.00
2018-09-06T18:37:02.372Z,100.00
2018-09-06T18:39:32.155Z,100.00
2018-09-06T18:42:01.918Z,100.00
2018-09-06T18:44:31.649Z,100.00
2018-09-06T18:47:01.341Z,100.00
2018-09-06T18:49:31.134Z,100.00
2018-09-06T18:52:00.822Z,100.00
2018-09-06T18:54:37.283Z,100.00
2018-09-06T18:57:07.441Z,100.00
2018-09-06T18:59:37.279Z,100.00
2018-09-06T19:02:07.009Z,100.00
2018-09-06T19:04:36.723Z,100.00
2018-09-06T19:07:06.443Z,100.00
2018-09-06T19:09:36.209Z,100.00
2018-09-06T19:12:05.996Z,100.00
2018-09-06T19:14:35.839Z,100.00
2018-09-06T19:17:05.581Z,100.00
2018-09-06T19:19:35.411Z,100.00
2018-09-06T19:22:05.222Z,100.00
2018-09-06T19:24:34.994Z,100.00
2018-09-06T19:27:04.874Z,100.00
2018-09-06T19:29:34.714Z,100.00
2018-09-06T19:32:08.957Z,100.00
2018-09-06T19:34:38.694Z,100.00
2018-09-06T19:39:42.416Z,100.00
2018-09-06T19:42:12.395Z,100.00
2018-09-06T19:44:46.264Z,100.00
2018-09-06T19:47:16.025Z,100.00
2018-09-06T19:49:45.818Z,100.00
2018-09-06T19:52:15.544Z,100.00
2018-09-06T19:54:48.348Z,100.00
2018-09-06T19:57:18.197Z,100.00
2018-09-06T19:59:48.114Z,100.00
2018-09-06T20:02:18.005Z,100.00
2018-09-06T20:04:47.797Z,100.00
2018-09-06T20:07:17.624Z,100.00
2018-09-06T20:09:47.570Z,100.00
2018-09-06T20:12:17.443Z,100.00
2018-09-06T20:14:47.233Z,100.00
2018-09-06T20:17:17.093Z,100.00
2018-09-06T20:19:46.886Z,100.00
2018-09-06T20:22:17.414Z,100.00
2018-09-06T20:24:47.132Z,100.00
2018-09-06T20:27:16.868Z,100.00
2018-09-06T20:29:46.647Z,100.00
2018-09-06T20:32:16.684Z,100.00
2018-09-06T20:34:47.329Z,100.00
2018-09-06T20:37:17.145Z,100.00
2018-09-06T20:39:46.874Z,100.00
2018-09-06T20:42:16.550Z,100.00
2018-09-06T20:44:46.323Z,100.00
2018-09-06T20:47:16.027Z,100.00
2018-09-06T20:49:45.784Z,100.00
2018-09-06T20:52:15.536Z,100.00
2018-09-06T20:54:45.244Z,100.00
2018-09-06T20:57:14.995Z,100.00
2018-09-06T20:59:44.631Z,100.00
2018-09-06T21:02:19.438Z,100.00
2018-09-06T21:04:49.215Z,100.00
2018-09-06T21:07:19.083Z,100.00
2018-09-06T21:09:48.914Z,100.00
2018-09-06T21:12:18.549Z,100.00
2018-09-06T21:14:48.252Z,100.00
2018-09-06T21:17:18.001Z,100.00
2018-09-06T21:19:47.690Z,100.00
2018-09-06T21:22:17.391Z,100.00
2018-09-06T21:24:47.084Z,100.00
2018-09-06T21:27:16.775Z,100.00
2018-09-06T21:29:46.376Z,100.00
2018-09-06T21:32:16.072Z,100.00
2018-09-06T21:34:45.835Z,100.00
2018-09-06T21:37:15.485Z,100.00
2018-09-06T21:39:45.175Z,100.00
2018-09-06T21:42:14.844Z,100.00
2018-09-06T21:44:44.475Z,100.00
2018-09-06T21:47:14.136Z,100.00
2018-09-06T21:49:43.850Z,100.00
2018-09-06T21:52:14.292Z,100.00
2018-09-06T21:54:43.920Z,100.00
2018-09-06T21:57:13.603Z,100.00
2018-09-06T21:59:43.244Z,100.00
2018-09-06T22:02:18.088Z,100.00
2018-09-06T22:04:47.683Z,100.00
2018-09-06T22:07:17.475Z,100.00
2018-09-06T22:09:47.153Z,100.00
2018-09-06T22:12:18.737Z,100.00
2018-09-06T22:14:50.370Z,100.00
2018-09-06T22:17:20.073Z,100.00
2018-09-06T22:19:49.802Z,100.00
2018-09-06T22:22:19.514Z,100.00
2018-09-06T22:24:49.272Z,100.00
2018-09-06T22:27:18.995Z,100.00
2018-09-06T22:29:48.659Z,100.00
2018-09-06T22:32:18.421Z,100.00
2018-09-06T22:34:48.050Z,100.00
2018-09-06T22:37:17.688Z,100.00
2018-09-06T22:39:47.360Z,100.00
2018-09-06T22:42:17.000Z,100.00
2018-09-06T22:44:46.704Z,100.00
2018-09-06T22:47:16.394Z,100.00
2018-09-06T22:49:46.115Z,100.00
2018-09-06T22:52:15.769Z,100.00
2018-09-06T22:54:45.488Z,100.00
2018-09-06T22:57:15.209Z,100.00
2018-09-06T22:59:44.854Z,100.00
2018-09-06T23:02:14.578Z,100.00
2018-09-06T23:04:44.220Z,100.00
2018-09-06T23:07:13.980Z,100.00
2018-09-06T23:09:43.879Z,100.00
2018-09-06T23:12:13.511Z,100.00
2018-09-06T23:14:43.411Z,100.00
2018-09-06T23:17:13.040Z,100.00
2018-09-06T23:19:42.889Z,100.00
2018-09-06T23:22:12.565Z,100.00
2018-09-06T23:24:42.398Z,100.00
2018-09-06T23:27:12.164Z,100.00
2018-09-06T23:29:41.898Z,100.00
2018-09-06T23:32:11.642Z,100.00
2018-09-06T23:34:41.323Z,100.00
2018-09-06T23:37:10.952Z,100.00
2018-09-06T23:39:40.680Z,100.00
2018-09-06T23:42:10.304Z,100.00
2018-09-06T23:44:40.350Z,100.00
2018-09-06T23:47:10.027Z,100.00
2018-09-06T23:49:39.672Z,100.00
2018-09-06T23:52:12.412Z,100.00
2018-09-06T23:54:42.480Z,100.00
2018-09-06T23:57:12.098Z,100.00
2018-09-06T23:59:42.127Z,100.00
